createdAt,value
2018-04-19T00:00:55.000Z,30.2
2018-04-19T00:01:55.000Z,30.2
2018-04-19T00:02:55.000Z,30.2
2018-04-19T00:04:55.000Z,30.2
2018-04-19T00:06:55.000Z,30.1
2018-04-19T00:08:55.000Z,30
2018-04-19T00:10:55.000Z,30
2018-04-19T00:11:55.000Z,30
2018-04-19T00:13:55.000Z,30
2018-04-19T00:15:55.000Z,30
2018-04-19T00:17:55.000Z,29.9
2018-04-19T00:19:55.000Z,29.9
2018-04-19T00:20:55.000Z,29.9
2018-04-19T00:22:55.000Z,30
2018-04-19T00:24:55.000Z,30
2018-04-19T00:25:55.000Z,30
2018-04-19T00:27:55.000Z,30
2018-04-19T00:29:55.000Z,30
2018-04-19T00:30:55.000Z,30
2018-04-19T00:32:55.000Z,30
2018-04-19T00:34:40.000Z,29.9
2018-04-19T00:36:55.000Z,29.8
2018-04-19T00:38:55.000Z,29.7
2018-04-19T00:39:55.000Z,29.7
2018-04-19T00:41:40.000Z,29.9
2018-04-19T00:42:55.000Z,29.9
2018-04-19T00:43:55.000Z,29.9
2018-04-19T00:44:55.000Z,30
2018-04-19T00:46:55.000Z,30
2018-04-19T00:48:55.000Z,30
2018-04-19T00:50:55.000Z,30
2018-04-19T00:51:55.000Z,30
2018-04-19T00:53:55.000Z,30.1
2018-04-19T00:54:55.000Z,30
2018-04-19T00:56:55.000Z,30
2018-04-19T00:57:55.000Z,30
2018-04-19T00:59:40.000Z,30
2018-04-19T01:00:55.000Z,30.1
2018-04-19T01:01:55.000Z,30.1
2018-04-19T01:03:55.000Z,30.1
2018-04-19T01:04:55.000Z,30.1
2018-04-19T01:05:55.000Z,30.2
2018-04-19T01:07:40.000Z,30.2
2018-04-19T01:08:55.000Z,30.2
2018-04-19T01:09:55.000Z,30.2
2018-04-19T01:11:55.000Z,30.2
2018-04-19T01:13:55.000Z,30.1
2018-04-19T01:15:55.000Z,30
2018-04-19T01:17:55.000Z,30
2018-04-19T01:18:55.000Z,30
2018-04-19T01:20:55.000Z,30
2018-04-19T01:21:55.000Z,30
2018-04-19T01:22:55.000Z,30.1
2018-04-19T01:24:55.000Z,30.1
2018-04-19T01:26:55.000Z,30
2018-04-19T01:28:55.000Z,29.9
2018-04-19T01:30:55.000Z,29.9
2018-04-19T01:32:55.000Z,29.9
2018-04-19T01:34:55.000Z,29.8
2018-04-19T01:36:40.000Z,29.8
2018-04-19T01:37:55.000Z,29.8
2018-04-19T01:38:55.000Z,29.8
2018-04-19T01:40:55.000Z,29.9
2018-04-19T01:42:55.000Z,29.9
2018-04-19T01:43:55.000Z,30
2018-04-19T01:45:55.000Z,30
2018-04-19T01:46:55.000Z,30
2018-04-19T01:48:55.000Z,30.1
2018-04-19T01:49:55.000Z,30.1
2018-04-19T01:51:55.000Z,30.1
2018-04-19T01:52:55.000Z,30.1
2018-04-19T01:54:55.000Z,30.1
2018-04-19T01:56:55.000Z,30
2018-04-19T01:57:55.000Z,30
2018-04-19T01:59:55.000Z,30
2018-04-19T02:00:55.000Z,30
2018-04-19T02:02:55.000Z,30
2018-04-19T02:03:55.000Z,30
2018-04-19T02:05:40.000Z,30
2018-04-19T02:06:55.000Z,29.9
2018-04-19T02:07:55.000Z,29.9
2018-04-19T02:09:55.000Z,30
2018-04-19T02:10:55.000Z,30
2018-04-19T02:12:55.000Z,29.9
2018-04-19T02:13:55.000Z,30
2018-04-19T02:15:55.000Z,30
2018-04-19T02:17:55.000Z,30
2018-04-19T02:18:55.000Z,29.9
2018-04-19T02:20:55.000Z,30
2018-04-19T02:22:55.000Z,29.9
2018-04-19T02:23:55.000Z,29.9
2018-04-19T02:25:55.000Z,29.9
2018-04-19T02:26:55.000Z,29.9
2018-04-19T02:27:55.000Z,30
2018-04-19T02:29:55.000Z,30
2018-04-19T02:31:55.000Z,30
2018-04-19T02:33:55.000Z,29.9
2018-04-19T02:34:55.000Z,29.9
2018-04-19T02:36:55.000Z,30
2018-04-19T02:37:55.000Z,30
2018-04-19T02:39:55.000Z,30
2018-04-19T02:41:55.000Z,29.9
2018-04-19T02:43:55.000Z,29.9
2018-04-19T02:45:55.000Z,29.8
2018-04-19T02:46:55.000Z,29.8
2018-04-19T02:48:55.000Z,29.8
2018-04-19T02:50:55.000Z,29.9
2018-04-19T02:52:55.000Z,29.9
2018-04-19T02:53:55.000Z,29.9
2018-04-19T02:54:55.000Z,29.9
2018-04-19T02:56:55.000Z,30
2018-04-19T02:57:55.000Z,30
2018-04-19T02:59:55.000Z,30.1
2018-04-19T03:01:55.000Z,30
2018-04-19T03:02:55.000Z,30
2018-04-19T03:04:55.000Z,30
2018-04-19T03:05:55.000Z,30
2018-04-19T03:06:55.000Z,30
2018-04-19T03:08:55.000Z,30
2018-04-19T03:10:55.000Z,29.9
2018-04-19T03:12:55.000Z,29.8
2018-04-19T03:14:55.000Z,29.8
2018-04-19T03:16:55.000Z,29.8
2018-04-19T03:18:55.000Z,29.7
2018-04-19T03:20:55.000Z,29.7
2018-04-19T03:22:55.000Z,29.6
2018-04-19T03:23:55.000Z,29.6
2018-04-19T03:25:55.000Z,29.7
2018-04-19T03:26:55.000Z,29.7
2018-04-19T03:28:55.000Z,29.7
2018-04-19T03:30:55.000Z,29.8
2018-04-19T03:31:55.000Z,29.8
2018-04-19T03:33:55.000Z,29.8
2018-04-19T03:34:55.000Z,29.8
2018-04-19T03:36:55.000Z,29.9
2018-04-19T03:38:55.000Z,29.9
2018-04-19T03:39:55.000Z,29.9
2018-04-19T03:41:39.000Z,29.9
2018-04-19T03:42:55.000Z,29.9
2018-04-19T03:43:55.000Z,29.9
2018-04-19T03:44:55.000Z,29.9
2018-04-19T03:46:55.000Z,29.9
2018-04-19T03:47:55.000Z,29.9
2018-04-19T03:49:55.000Z,29.9
2018-04-19T03:50:55.000Z,29.9
2018-04-19T03:52:55.000Z,30
2018-04-19T03:53:55.000Z,30
2018-04-19T03:55:55.000Z,30
2018-04-19T03:56:55.000Z,30
2018-04-19T03:57:55.000Z,30
2018-04-19T03:59:55.000Z,30.1
2018-04-19T04:01:39.000Z,30
2018-04-19T04:02:55.000Z,30
2018-04-19T04:04:55.000Z,30
2018-04-19T04:06:55.000Z,29.9
2018-04-19T04:07:55.000Z,29.8
2018-04-19T04:09:55.000Z,29.9
2018-04-19T04:10:55.000Z,29.9
2018-04-19T04:12:55.000Z,29.9
2018-04-19T04:13:55.000Z,29.9
2018-04-19T04:14:55.000Z,30
2018-04-19T04:16:55.000Z,30
2018-04-19T04:18:55.000Z,29.9
2018-04-19T04:19:55.000Z,29.9
2018-04-19T04:21:39.000Z,29.9
2018-04-19T04:22:55.000Z,29.9
2018-04-19T04:24:55.000Z,29.8
2018-04-19T04:26:55.000Z,29.8
2018-04-19T04:27:55.000Z,29.6
2018-04-19T04:29:55.000Z,29
2018-04-19T04:31:55.000Z,28.2
2018-04-19T04:33:55.000Z,27.5
2018-04-19T04:35:55.000Z,26.9
2018-04-19T04:36:55.000Z,26.7
2018-04-19T04:41:58.000Z,26.3
2018-04-19T04:43:58.000Z,26.1
2018-04-19T04:44:58.000Z,26.1
2018-04-19T04:45:58.000Z,26.1
2018-04-19T04:47:58.000Z,25.9
2018-04-19T04:49:42.000Z,25.8
2018-04-19T04:50:58.000Z,25.7
2018-04-19T04:51:58.000Z,25.6
2018-04-19T04:52:58.000Z,25.6
2018-04-19T04:54:58.000Z,25.6
2018-04-19T04:56:42.000Z,25.6
2018-04-19T04:57:58.000Z,25.5
2018-04-19T04:58:58.000Z,25.5
2018-04-19T05:00:58.000Z,25.6
2018-04-19T05:01:58.000Z,25.6
2018-04-19T05:03:58.000Z,25.7
2018-04-19T05:04:58.000Z,25.7
2018-04-19T05:06:58.000Z,25.7
2018-04-19T05:08:42.000Z,25.7
2018-04-19T05:09:58.000Z,25.7
2018-04-19T05:11:58.000Z,25.6
2018-04-19T05:12:58.000Z,25.6
2018-04-19T05:13:58.000Z,25.7
2018-04-19T05:14:58.000Z,25.8
2018-04-19T05:16:58.000Z,25.7
2018-04-19T05:18:58.000Z,25.6
2018-04-19T05:20:58.000Z,25.5
2018-04-19T05:21:58.000Z,25.5
2018-04-19T05:23:58.000Z,25.6
2018-04-19T05:24:58.000Z,25.8
2018-04-19T05:26:58.000Z,26.2
2018-04-19T05:28:58.000Z,26.4
2018-04-19T05:29:58.000Z,26.5
2018-04-19T05:31:58.000Z,26.8
2018-04-19T05:32:58.000Z,26.8
2018-04-19T05:33:58.000Z,26.9
2018-04-19T05:35:58.000Z,27
2018-04-19T05:36:58.000Z,27
2018-04-19T05:37:58.000Z,27
2018-04-19T05:39:58.000Z,27.1
2018-04-19T05:40:58.000Z,27.2
2018-04-19T05:42:58.000Z,27.3
2018-04-19T05:43:58.000Z,27.2
2018-04-19T05:45:58.000Z,27.4
2018-04-19T05:46:58.000Z,27.4
2018-04-19T05:48:58.000Z,27.5
2018-04-19T05:50:43.000Z,27.5
2018-04-19T05:51:58.000Z,27.4
2018-04-19T05:52:58.000Z,27.5
2018-04-19T05:54:58.000Z,27.7
2018-04-19T05:56:58.000Z,27.7
2018-04-19T05:58:43.000Z,27.8
2018-04-19T05:59:58.000Z,27.8
2018-04-19T06:00:58.000Z,27.7
2018-04-19T06:01:58.000Z,27.7
2018-04-19T06:03:58.000Z,27.6
2018-04-19T06:05:58.000Z,27.4
2018-04-19T06:06:58.000Z,27.4
2018-04-19T06:08:58.000Z,27.3
2018-04-19T06:10:58.000Z,27.2
2018-04-19T06:12:58.000Z,27.1
2018-04-19T06:13:58.000Z,27.1
2018-04-19T06:14:58.000Z,27.2
2018-04-19T06:15:58.000Z,27.3
2018-04-19T06:17:58.000Z,27.3
2018-04-19T06:18:58.000Z,27.4
2018-04-19T06:20:58.000Z,27.4
2018-04-19T06:22:58.000Z,27.4
2018-04-19T06:23:58.000Z,27.4
2018-04-19T06:25:58.000Z,27.6
2018-04-19T06:27:58.000Z,27.6
2018-04-19T06:29:58.000Z,27.7
2018-04-19T06:31:58.000Z,27.8
2018-04-19T06:33:58.000Z,27.9
2018-04-19T06:34:58.000Z,27.8
2018-04-19T06:35:58.000Z,27.8
2018-04-19T06:37:58.000Z,27.9
2018-04-19T06:39:43.000Z,27.9
2018-04-19T06:40:58.000Z,27.9
2018-04-19T06:42:58.000Z,27.9
2018-04-19T06:44:58.000Z,27.8
2018-04-19T06:45:58.000Z,27.9
2018-04-19T06:46:58.000Z,28
2018-04-19T06:47:58.000Z,28.1
2018-04-19T06:49:58.000Z,28.2
2018-04-19T06:51:58.000Z,28.4
2018-04-19T06:53:58.000Z,28.4
2018-04-19T06:54:58.000Z,28.5
2018-04-19T06:56:58.000Z,28.6
2018-04-19T06:58:58.000Z,28.7
2018-04-19T06:59:58.000Z,28.8
2018-04-19T07:01:58.000Z,28.9
2018-04-19T07:03:42.000Z,29.1
2018-04-19T07:04:58.000Z,29.2
2018-04-19T07:06:58.000Z,29.2
2018-04-19T07:07:58.000Z,29.2
2018-04-19T07:09:58.000Z,29.4
2018-04-19T07:11:42.000Z,29.6
2018-04-19T07:12:58.000Z,29.6
2018-04-19T07:14:58.000Z,29.7
2018-04-19T07:15:58.000Z,29.8
2018-04-19T07:16:58.000Z,29.8
2018-04-19T07:17:58.000Z,29.9
2018-04-19T07:18:58.000Z,30
2018-04-19T07:20:58.000Z,30.2
2018-04-19T07:22:58.000Z,30.2
2018-04-19T07:23:58.000Z,30.2
2018-04-19T07:25:58.000Z,30.3
2018-04-19T07:26:58.000Z,30.3
2018-04-19T07:28:58.000Z,30.4
2018-04-19T07:29:58.000Z,30.5
2018-04-19T07:31:58.000Z,30.6
2018-04-19T07:32:58.000Z,30.7
2018-04-19T07:33:58.000Z,30.8
2018-04-19T07:35:58.000Z,31
2018-04-19T07:37:58.000Z,31.1
2018-04-19T07:38:58.000Z,31.1
2018-04-19T07:40:58.000Z,31.2
2018-04-19T07:41:58.000Z,31.3
2018-04-19T07:43:58.000Z,31.4
2018-04-19T07:45:58.000Z,31.5
2018-04-19T07:47:58.000Z,31.5
2018-04-19T07:48:58.000Z,31.5
2018-04-19T07:50:58.000Z,31.6
2018-04-19T07:52:58.000Z,31.5
2018-04-19T07:53:58.000Z,31.4
2018-04-19T07:55:58.000Z,31.3
2018-04-19T07:57:58.000Z,31.2
2018-04-19T07:58:58.000Z,31.1
2018-04-19T08:00:58.000Z,31.1
2018-04-19T08:01:58.000Z,31.1
2018-04-19T08:03:58.000Z,31.1
2018-04-19T08:04:58.000Z,31.1
2018-04-19T08:05:58.000Z,31.1
2018-04-19T08:06:58.000Z,31.1
2018-04-19T08:08:43.000Z,31.2
2018-04-19T08:09:58.000Z,31.2
2018-04-19T08:11:58.000Z,31.2
2018-04-19T08:13:58.000Z,31.1
2018-04-19T08:15:58.000Z,31.1
2018-04-19T08:17:58.000Z,31.1
2018-04-19T08:19:58.000Z,31
2018-04-19T08:20:58.000Z,31.1
2018-04-19T08:21:58.000Z,31.1
2018-04-19T08:22:58.000Z,31.2
2018-04-19T08:24:43.000Z,31.3
2018-04-19T08:25:58.000Z,31.2
2018-04-19T08:26:58.000Z,31.3
2018-04-19T08:28:58.000Z,31.3
2018-04-19T08:29:58.000Z,31.3
2018-04-19T08:31:58.000Z,31.3
2018-04-19T08:32:58.000Z,31.3
2018-04-19T08:34:58.000Z,31.3
2018-04-19T08:36:58.000Z,31.3
2018-04-19T08:38:58.000Z,31.3
2018-04-19T08:39:58.000Z,31.3
2018-04-19T08:41:58.000Z,31.3
2018-04-19T08:43:58.000Z,31.3
2018-04-19T08:45:58.000Z,31.3
2018-04-19T08:47:58.000Z,31.3
2018-04-19T08:49:58.000Z,31.3
2018-04-19T08:50:58.000Z,31.2
2018-04-19T08:52:58.000Z,31.3
2018-04-19T08:53:58.000Z,31.4
2018-04-19T08:55:43.000Z,31.5
2018-04-19T08:56:58.000Z,31.5
2018-04-19T08:57:58.000Z,31.5
2018-04-19T08:58:58.000Z,31.5
2018-04-19T09:00:58.000Z,31.6
2018-04-19T09:02:58.000Z,31.6
2018-04-19T09:03:58.000Z,31.6
2018-04-19T09:04:58.000Z,31.6
2018-04-19T09:05:58.000Z,31.7
2018-04-19T09:07:58.000Z,31.8
2018-04-19T09:08:58.000Z,31.8
2018-04-19T09:09:58.000Z,31.8
2018-04-19T09:11:58.000Z,31.8
2018-04-19T09:13:58.000Z,31.8
2018-04-19T09:14:58.000Z,31.8
2018-04-19T09:15:58.000Z,31.9
2018-04-19T09:16:58.000Z,31.9
2018-04-19T09:18:58.000Z,32
2018-04-19T09:19:58.000Z,32
2018-04-19T09:21:58.000Z,32.1
2018-04-19T09:22:58.000Z,32.1
2018-04-19T09:24:43.000Z,32.2
2018-04-19T09:25:58.000Z,32.1
2018-04-19T09:27:58.000Z,32.1
2018-04-19T09:29:58.000Z,32
2018-04-19T09:31:58.000Z,32
2018-04-19T09:32:58.000Z,32
2018-04-19T09:33:58.000Z,32
2018-04-19T09:35:58.000Z,32.2
2018-04-19T09:37:58.000Z,32.2
2018-04-19T09:39:58.000Z,32.2
2018-04-19T09:41:58.000Z,32.2
2018-04-19T09:43:58.000Z,32.2
2018-04-19T09:44:58.000Z,32.2
2018-04-19T09:46:58.000Z,32.2
2018-04-19T09:47:58.000Z,32.2
2018-04-19T09:48:58.000Z,32.3
2018-04-19T09:50:58.000Z,32.4
2018-04-19T09:51:58.000Z,32.4
2018-04-19T09:52:58.000Z,32.5
2018-04-19T09:54:58.000Z,32.6
2018-04-19T09:56:58.000Z,32.6
2018-04-19T09:58:58.000Z,32.5
2018-04-19T10:00:58.000Z,32.5
2018-04-19T10:01:58.000Z,32.5
2018-04-19T10:02:58.000Z,32.6
2018-04-19T10:03:58.000Z,32.6
2018-04-19T10:05:58.000Z,32.7
2018-04-19T10:06:58.000Z,32.7
2018-04-19T10:08:58.000Z,32.8
2018-04-19T10:10:58.000Z,32.8
2018-04-19T10:11:58.000Z,32.8
2018-04-19T10:13:58.000Z,32.8
2018-04-19T10:15:58.000Z,32.8
2018-04-19T10:17:58.000Z,32.8
2018-04-19T10:18:58.000Z,32.8
2018-04-19T10:19:58.000Z,32.9
2018-04-19T10:20:58.000Z,33
2018-04-19T10:22:58.000Z,33
2018-04-19T10:23:58.000Z,33
2018-04-19T10:24:58.000Z,33.1
2018-04-19T10:26:58.000Z,33.2
2018-04-19T10:28:58.000Z,33.2
2018-04-19T10:29:58.000Z,33.2
2018-04-19T10:30:58.000Z,33.2
2018-04-19T10:32:58.000Z,33.3
2018-04-19T10:33:58.000Z,33.3
2018-04-19T10:34:58.000Z,33.3
2018-04-19T10:36:58.000Z,33.3
2018-04-19T10:37:58.000Z,33.3
2018-04-19T10:39:42.000Z,33.3
2018-04-19T10:40:58.000Z,33.3
2018-04-19T10:42:58.000Z,33.2
2018-04-19T10:44:58.000Z,33.1
2018-04-19T10:46:58.000Z,33
2018-04-19T10:48:58.000Z,33
2018-04-19T10:50:58.000Z,33
2018-04-19T10:52:58.000Z,33
2018-04-19T10:53:58.000Z,33.1
2018-04-19T10:54:58.000Z,33.1
2018-04-19T10:56:58.000Z,33.1
2018-04-19T10:57:58.000Z,33.1
2018-04-19T10:58:58.000Z,33.1
2018-04-19T11:00:58.000Z,33.2
2018-04-19T11:02:58.000Z,33.2
2018-04-19T11:03:58.000Z,33.2
2018-04-19T11:05:58.000Z,33.2
2018-04-19T11:06:58.000Z,33.2
2018-04-19T11:08:58.000Z,33.2
2018-04-19T11:10:58.000Z,33.2
2018-04-19T11:11:58.000Z,33.2
2018-04-19T11:13:58.000Z,33.3
2018-04-19T11:15:58.000Z,33.3
2018-04-19T11:16:58.000Z,33.3
2018-04-19T11:17:58.000Z,33.3
2018-04-19T11:19:58.000Z,33.4
2018-04-19T11:21:58.000Z,33.3
2018-04-19T11:22:58.000Z,33.3
2018-04-19T11:24:58.000Z,33.3
2018-04-19T11:25:58.000Z,33.3
2018-04-19T11:26:58.000Z,33.3
2018-04-19T11:28:58.000Z,33.4
2018-04-19T11:29:58.000Z,33.4
2018-04-19T11:31:58.000Z,33.5
2018-04-19T11:33:58.000Z,33.4
2018-04-19T11:35:58.000Z,33.3
2018-04-19T11:37:58.000Z,33.3
2018-04-19T11:39:58.000Z,33.2
2018-04-19T11:40:58.000Z,33.3
2018-04-19T11:41:58.000Z,33.3
2018-04-19T11:43:58.000Z,33.4
2018-04-19T11:44:58.000Z,33.4
2018-04-19T11:46:58.000Z,33.4
2018-04-19T11:48:42.000Z,33.4
2018-04-19T11:49:58.000Z,33.4
2018-04-19T11:51:58.000Z,33.4
2018-04-19T11:52:58.000Z,33.4
2018-04-19T11:54:58.000Z,33.4
2018-04-19T11:56:58.000Z,33.4
2018-04-19T11:58:58.000Z,33.4
2018-04-19T12:00:58.000Z,33.5
2018-04-19T12:02:58.000Z,33.5
2018-04-19T12:04:42.000Z,33.6
2018-04-19T12:05:58.000Z,33.6
2018-04-19T12:06:58.000Z,33.7
2018-04-19T12:08:58.000Z,33.7
2018-04-19T12:10:58.000Z,33.8
2018-04-19T12:12:58.000Z,33.8
2018-04-19T12:14:58.000Z,33.8
2018-04-19T12:15:58.000Z,33.8
2018-04-19T12:17:58.000Z,33.9
2018-04-19T12:19:58.000Z,33.9
2018-04-19T12:21:58.000Z,33.9
2018-04-19T12:22:58.000Z,34
2018-04-19T12:24:58.000Z,34
2018-04-19T12:26:58.000Z,34.1
2018-04-19T12:27:58.000Z,34.1
2018-04-19T12:28:58.000Z,34.2
2018-04-19T12:30:58.000Z,34.2
2018-04-19T12:31:58.000Z,34.2
2018-04-19T12:33:58.000Z,34.3
2018-04-19T12:34:58.000Z,34.3
2018-04-19T12:36:43.000Z,34.4
2018-04-19T12:37:58.000Z,34.4
2018-04-19T12:38:58.000Z,34.4
2018-04-19T12:39:58.000Z,34.5
2018-04-19T12:41:58.000Z,34.6
2018-04-19T12:43:58.000Z,34.6
2018-04-19T12:44:58.000Z,34.6
2018-04-19T12:45:58.000Z,34.7
2018-04-19T12:47:58.000Z,34.7
2018-04-19T12:49:58.000Z,34.8
2018-04-19T12:51:58.000Z,34.7
2018-04-19T12:52:58.000Z,34.7
2018-04-19T12:54:58.000Z,34.7
2018-04-19T12:55:58.000Z,34.7
2018-04-19T12:57:58.000Z,34.8
2018-04-19T12:58:58.000Z,34.8
2018-04-19T13:00:58.000Z,34.9
2018-04-19T13:02:58.000Z,34.9
2018-04-19T13:03:58.000Z,34.9
2018-04-19T13:05:58.000Z,34.9
2018-04-19T13:07:58.000Z,34.9
2018-04-19T13:08:58.000Z,34.9
2018-04-19T13:09:58.000Z,34.9
2018-04-19T13:10:58.000Z,35
2018-04-19T13:12:58.000Z,35
2018-04-19T13:13:58.000Z,35
2018-04-19T13:15:58.000Z,35
2018-04-19T13:16:58.000Z,35
2018-04-19T13:17:58.000Z,35
2018-04-19T13:19:58.000Z,35
2018-04-19T13:20:58.000Z,35
2018-04-19T13:22:58.000Z,35
2018-04-19T13:24:43.000Z,35.1
2018-04-19T13:25:58.000Z,35.2
2018-04-19T13:27:43.000Z,35.5
2018-04-19T13:28:58.000Z,36
2018-04-19T13:29:58.000Z,36.9
2018-04-19T13:31:58.000Z,38.8
2018-04-19T13:32:58.000Z,39.6
2018-04-19T13:33:58.000Z,40.3
2018-04-19T13:35:43.000Z,41.1
2018-04-19T13:36:58.000Z,41.2
2018-04-19T13:38:43.000Z,40.4
2018-04-19T13:39:58.000Z,39.5
2018-04-19T13:40:58.000Z,38.9
2018-04-19T13:42:58.000Z,38
2018-04-19T13:43:58.000Z,37.6
2018-04-19T13:45:58.000Z,37.1
2018-04-19T13:47:58.000Z,36.6
2018-04-19T13:48:58.000Z,36.4
2018-04-19T13:50:58.000Z,36
2018-04-19T13:52:43.000Z,35.8
2018-04-19T13:53:58.000Z,35.7
2018-04-19T13:54:58.000Z,35.6
2018-04-19T13:56:58.000Z,35.5
2018-04-19T13:57:58.000Z,35.4
2018-04-19T13:58:58.000Z,35.4
2018-04-19T13:59:58.000Z,35.4
2018-04-19T14:00:58.000Z,35.4
2018-04-19T14:02:58.000Z,35.4
2018-04-19T14:04:58.000Z,35.3
2018-04-19T14:05:58.000Z,35.3
2018-04-19T14:07:58.000Z,35.2
2018-04-19T14:09:58.000Z,35.1
2018-04-19T14:10:58.000Z,35.1
2018-04-19T14:12:58.000Z,35
2018-04-19T14:13:58.000Z,35
2018-04-19T14:15:58.000Z,35
2018-04-19T14:17:58.000Z,34.9
2018-04-19T14:18:58.000Z,34.9
2018-04-19T14:19:58.000Z,34.9
2018-04-19T14:21:58.000Z,34.9
2018-04-19T14:23:42.000Z,34.9
2018-04-19T14:24:58.000Z,34.9
2018-04-19T14:25:58.000Z,34.9
2018-04-19T14:27:58.000Z,34.9
2018-04-19T14:28:58.000Z,34.9
2018-04-19T14:30:58.000Z,34.9
2018-04-19T14:32:58.000Z,34.9
2018-04-19T14:34:58.000Z,34.9
2018-04-19T14:36:58.000Z,34.8
2018-04-19T14:37:58.000Z,34.8
2018-04-19T14:39:58.000Z,34.8
2018-04-19T14:41:58.000Z,34.8
2018-04-19T14:42:58.000Z,34.8
2018-04-19T14:44:58.000Z,34.8
2018-04-19T14:45:58.000Z,34.8
2018-04-19T14:47:58.000Z,34.8
2018-04-19T14:48:58.000Z,34.7
2018-04-19T14:50:58.000Z,34.7
2018-04-19T14:52:58.000Z,34.6
2018-04-19T14:53:58.000Z,34.6
2018-04-19T14:54:58.000Z,34.6
2018-04-19T14:55:58.000Z,34.6
2018-04-19T14:57:58.000Z,34.7
2018-04-19T14:59:58.000Z,34.6
2018-04-19T15:01:58.000Z,34.6
2018-04-19T15:03:58.000Z,34.5
2018-04-19T15:04:58.000Z,34.5
2018-04-19T15:05:58.000Z,34.6
2018-04-19T15:07:58.000Z,34.7
2018-04-19T15:09:58.000Z,34.7
2018-04-19T15:11:58.000Z,34.6
2018-04-19T15:12:58.000Z,34.6
2018-04-19T15:14:58.000Z,34.6
2018-04-19T15:15:58.000Z,34.6
2018-04-19T15:17:42.000Z,34.6
2018-04-19T15:18:58.000Z,34.5
2018-04-19T15:19:58.000Z,34.5
2018-04-19T15:21:58.000Z,34.5
2018-04-19T15:23:58.000Z,34.4
2018-04-19T15:24:58.000Z,34.4
2018-04-19T15:25:58.000Z,34.5
2018-04-19T15:27:58.000Z,34.5
2018-04-19T15:28:58.000Z,34.5
2018-04-19T15:30:58.000Z,34.4
2018-04-19T15:31:58.000Z,34.4
2018-04-19T15:33:58.000Z,34.3
2018-04-19T15:34:58.000Z,34.3
2018-04-19T15:36:58.000Z,34.3
2018-04-19T15:37:58.000Z,34.3
2018-04-19T15:38:58.000Z,34.3
2018-04-19T15:40:58.000Z,34.3
2018-04-19T15:41:58.000Z,34.3
2018-04-19T15:43:58.000Z,34.4
2018-04-19T15:45:42.000Z,34.3
2018-04-19T15:46:58.000Z,34.3
2018-04-19T15:48:58.000Z,34.3
2018-04-19T15:49:58.000Z,34.3
2018-04-19T15:51:58.000Z,34.3
2018-04-19T15:53:58.000Z,34.2
2018-04-19T15:55:58.000Z,34.2
2018-04-19T15:56:58.000Z,34.2
2018-04-19T15:58:58.000Z,34.2
2018-04-19T16:00:58.000Z,34.1
2018-04-19T16:01:58.000Z,34.1
2018-04-19T16:03:58.000Z,34
2018-04-19T16:04:58.000Z,34
2018-04-19T16:06:58.000Z,34
2018-04-19T16:08:58.000Z,34
2018-04-19T16:09:58.000Z,34
2018-04-19T16:11:58.000Z,34
2018-04-19T16:13:58.000Z,34
2018-04-19T16:15:58.000Z,33.9
2018-04-19T16:17:58.000Z,33.9
2018-04-19T16:19:58.000Z,33.8
2018-04-19T16:21:42.000Z,33.8
2018-04-19T16:22:58.000Z,33.7
2018-04-19T16:23:58.000Z,33.7
2018-04-19T16:25:58.000Z,33.8
2018-04-19T16:27:58.000Z,33.8
2018-04-19T16:28:58.000Z,33.8
2018-04-19T16:30:58.000Z,33.8
2018-04-19T16:32:43.000Z,33.8
2018-04-19T16:33:58.000Z,33.7
2018-04-19T16:35:58.000Z,33.7
2018-04-19T16:37:58.000Z,33.7
2018-04-19T16:38:58.000Z,33.6
2018-04-19T16:40:58.000Z,33.7
2018-04-19T16:41:58.000Z,33.7
2018-04-19T16:42:58.000Z,33.7
2018-04-19T16:44:58.000Z,33.8
2018-04-19T16:45:58.000Z,33.8
2018-04-19T16:46:58.000Z,33.9
2018-04-19T16:48:58.000Z,33.9
2018-04-19T16:50:58.000Z,33.8
2018-04-19T16:51:58.000Z,33.8
2018-04-19T16:52:58.000Z,33.8
2018-04-19T16:54:58.000Z,33.9
2018-04-19T16:56:58.000Z,33.8
2018-04-19T16:58:58.000Z,33.8
2018-04-19T16:59:58.000Z,33.8
2018-04-19T17:01:58.000Z,33.9
2018-04-19T17:02:58.000Z,33.9
2018-04-19T17:04:43.000Z,34
2018-04-19T17:05:58.000Z,33.9
2018-04-19T17:07:58.000Z,33.9
2018-04-19T17:09:58.000Z,33.9
2018-04-19T17:10:58.000Z,33.9
2018-04-19T17:12:58.000Z,33.9
2018-04-19T17:14:43.000Z,33.9
2018-04-19T17:15:58.000Z,33.9
2018-04-19T17:16:58.000Z,33.8
2018-04-19T17:18:58.000Z,33.9
2018-04-19T17:20:58.000Z,33.9
2018-04-19T17:21:58.000Z,33.9
2018-04-19T17:23:58.000Z,33.8
2018-04-19T17:24:58.000Z,33.8
2018-04-19T17:26:58.000Z,33.8
2018-04-19T17:28:58.000Z,33.8
2018-04-19T17:29:58.000Z,33.8
2018-04-19T17:31:58.000Z,33.8
2018-04-19T17:32:58.000Z,33.7
2018-04-19T17:34:42.000Z,33.7
2018-04-19T17:35:58.000Z,33.7
2018-04-19T17:36:58.000Z,33.7
2018-04-19T17:37:58.000Z,33.8
2018-04-19T17:39:42.000Z,33.9
2018-04-19T17:40:58.000Z,33.8
2018-04-19T17:41:58.000Z,33.8
2018-04-19T17:43:58.000Z,33.8
2018-04-19T17:45:58.000Z,33.8
2018-04-19T17:47:58.000Z,33.7
2018-04-19T17:49:58.000Z,33.7
2018-04-19T17:51:58.000Z,33.6
2018-04-19T17:52:58.000Z,33.5
2018-04-19T17:53:58.000Z,33.6
2018-04-19T17:55:58.000Z,33.6
2018-04-19T17:57:58.000Z,33.6
2018-04-19T17:58:58.000Z,33.6
2018-04-19T17:59:58.000Z,33.6
2018-04-19T18:01:58.000Z,33.6
2018-04-19T18:03:58.000Z,33.6
2018-04-19T18:04:58.000Z,33.6
2018-04-19T18:05:58.000Z,33.6
2018-04-19T18:07:58.000Z,33.6
2018-04-19T18:08:58.000Z,33.6
2018-04-19T18:10:58.000Z,33.6
2018-04-19T18:11:58.000Z,33.6
2018-04-19T18:12:58.000Z,33.6
2018-04-19T18:14:58.000Z,33.6
2018-04-19T18:16:58.000Z,33.5
2018-04-19T18:18:58.000Z,33.3
2018-04-19T18:20:58.000Z,33.3
2018-04-19T18:21:58.000Z,33.2
2018-04-19T18:22:58.000Z,33.3
2018-04-19T18:24:58.000Z,33.3
2018-04-19T18:26:42.000Z,33.2
2018-04-19T18:27:58.000Z,33.1
2018-04-19T18:29:58.000Z,33.1
2018-04-19T18:30:58.000Z,33.1
2018-04-19T18:31:58.000Z,33.1
2018-04-19T18:32:58.000Z,33.2
2018-04-19T18:33:58.000Z,33.2
2018-04-19T18:34:58.000Z,33.2
2018-04-19T18:36:58.000Z,33.2
2018-04-19T18:37:58.000Z,33.2
2018-04-19T18:38:58.000Z,33.2
2018-04-19T18:40:43.000Z,33.3
2018-04-19T18:41:58.000Z,33.2
2018-04-19T18:42:58.000Z,33.2
2018-04-19T18:44:58.000Z,33.1
2018-04-19T18:46:58.000Z,33
2018-04-19T18:47:58.000Z,33
2018-04-19T18:49:58.000Z,33
2018-04-19T18:50:58.000Z,33
2018-04-19T18:51:58.000Z,33
2018-04-19T18:53:58.000Z,33
2018-04-19T18:55:58.000Z,32.9
2018-04-19T18:57:58.000Z,32.8
2018-04-19T18:59:58.000Z,32.7
2018-04-19T19:01:58.000Z,32.6
2018-04-19T19:02:58.000Z,32.5
2018-04-19T19:04:58.000Z,32.6
2018-04-19T19:05:58.000Z,32.6
2018-04-19T19:06:58.000Z,32.6
2018-04-19T19:08:58.000Z,32.6
2018-04-19T19:10:58.000Z,32.6
2018-04-19T19:11:58.000Z,32.6
2018-04-19T19:12:58.000Z,32.6
2018-04-19T19:14:58.000Z,32.6
2018-04-19T19:15:58.000Z,32.6
2018-04-19T19:17:43.000Z,32.7
2018-04-19T19:18:58.000Z,32.6
2018-04-19T19:20:58.000Z,32.6
2018-04-19T19:22:58.000Z,32.6
2018-04-19T19:23:58.000Z,32.6
2018-04-19T19:25:58.000Z,32.6
2018-04-19T19:27:58.000Z,32.6
2018-04-19T19:28:58.000Z,32.6
2018-04-19T19:30:58.000Z,32.6
2018-04-19T19:31:58.000Z,32.6
2018-04-19T19:32:58.000Z,32.6
2018-04-19T19:34:58.000Z,32.7
2018-04-19T19:35:58.000Z,32.7
2018-04-19T19:37:58.000Z,32.6
2018-04-19T19:39:58.000Z,32.5
2018-04-19T19:40:58.000Z,32.5
2018-04-19T19:41:58.000Z,32.5
2018-04-19T19:43:58.000Z,32.5
2018-04-19T19:44:58.000Z,32.5
2018-04-19T19:46:58.000Z,32.5
2018-04-19T19:47:58.000Z,32.6
2018-04-19T19:48:58.000Z,32.6
2018-04-19T19:50:58.000Z,32.6
2018-04-19T19:51:58.000Z,32.6
2018-04-19T19:52:58.000Z,32.6
2018-04-19T19:54:58.000Z,32.6
2018-04-19T19:56:58.000Z,32.4
2018-04-19T19:58:58.000Z,32.3
2018-04-19T20:00:58.000Z,32.2
2018-04-19T20:01:58.000Z,32.2
2018-04-19T20:03:58.000Z,32.2
2018-04-19T20:04:58.000Z,32.3
2018-04-19T20:05:58.000Z,32.3
2018-04-19T20:07:58.000Z,32.4
2018-04-19T20:08:58.000Z,32.4
2018-04-19T20:10:58.000Z,32.3
2018-04-19T20:12:58.000Z,32.3
2018-04-19T20:13:58.000Z,32.3
2018-04-19T20:15:58.000Z,32.3
2018-04-19T20:17:58.000Z,32.2
2018-04-19T20:19:43.000Z,32.1
2018-04-19T20:20:58.000Z,32.1
2018-04-19T20:21:58.000Z,32.1
2018-04-19T20:23:58.000Z,32.1
2018-04-19T20:24:58.000Z,32.1
2018-04-19T20:26:58.000Z,32.1
2018-04-19T20:27:58.000Z,32.1
2018-04-19T20:29:58.000Z,32.1
2018-04-19T20:31:43.000Z,32.1
2018-04-19T20:32:58.000Z,32
2018-04-19T20:33:58.000Z,32.1
2018-04-19T20:35:58.000Z,32
2018-04-19T20:37:58.000Z,32
2018-04-19T20:39:58.000Z,32
2018-04-19T20:40:58.000Z,32
2018-04-19T20:42:58.000Z,32
2018-04-19T20:43:58.000Z,32
2018-04-19T20:44:58.000Z,32.1
2018-04-19T20:46:58.000Z,32
2018-04-19T20:47:58.000Z,32
2018-04-19T20:49:58.000Z,32
2018-04-19T20:50:58.000Z,32
2018-04-19T20:52:58.000Z,31.9
2018-04-19T20:53:58.000Z,31.9
2018-04-19T20:54:58.000Z,31.9
2018-04-19T20:56:58.000Z,31.9